createdAt,value
2023-04-11T00:03:29.843Z,4.00
2023-04-11T00:08:34.284Z,3.75
2023-04-11T00:13:38.132Z,3.50
2023-04-11T00:18:45.171Z,4.13
2023-04-11T00:23:48.261Z,3.15
2023-04-11T00:28:52.408Z,2.92
2023-04-11T00:33:56.438Z,2.60
2023-04-11T00:39:01.553Z,6.18
2023-04-11T00:44:06.676Z,4.07
2023-04-11T00:49:12.442Z,4.00
2023-04-11T00:54:17.352Z,3.85
2023-04-11T00:59:21.589Z,4.15
2023-04-11T01:04:26.461Z,3.75
2023-04-11T01:09:30.140Z,4.22
2023-04-11T01:14:33.846Z,5.40
2023-04-11T01:19:37.332Z,4.50
2023-04-11T01:24:41.310Z,4.32
2023-04-11T01:29:45.280Z,6.40
2023-04-11T01:34:51.038Z,4.10
2023-04-11T01:39:54.748Z,8.10
2023-04-11T01:44:59.757Z,4.00
2023-04-11T01:50:04.406Z,4.20
2023-04-11T01:55:08.599Z,9.18
2023-04-11T02:00:14.930Z,4.55
2023-04-11T02:05:19.195Z,4.63
2023-04-11T02:10:22.895Z,5.93
2023-04-11T02:15:26.024Z,5.38
2023-04-11T02:20:29.721Z,6.00
2023-04-11T02:25:34.989Z,6.47
2023-04-11T02:30:38.753Z,4.97
2023-04-11T02:35:42.505Z,6.15
2023-04-11T02:40:45.609Z,5.45
2023-04-11T02:45:49.836Z,5.93
2023-04-11T02:50:54.567Z,6.63
2023-04-11T02:55:58.627Z,6.00
2023-04-11T03:01:02.147Z,9.15
2023-04-11T03:06:10.023Z,8.07
2023-04-11T03:11:14.760Z,6.72
2023-04-11T03:16:20.298Z,5.95
2023-04-11T03:21:23.423Z,7.63
2023-04-11T03:26:27.439Z,6.93
2023-04-11T03:31:36.235Z,6.05
2023-04-11T03:36:39.421Z,7.03
2023-04-11T03:41:43.599Z,6.75
2023-04-11T03:46:48.210Z,5.82
2023-04-11T03:51:53.167Z,8.25
2023-04-11T03:56:57.748Z,7.05
2023-04-11T04:02:02.776Z,6.53
2023-04-11T04:07:10.230Z,7.45
2023-04-11T04:12:18.142Z,8.07
2023-04-11T04:17:52.323Z,6.90
2023-04-11T04:23:14.649Z,7.07
2023-04-11T04:28:47.660Z,7.72
2023-04-11T04:33:59.104Z,7.38
2023-04-11T04:39:05.417Z,7.18
2023-04-11T04:44:17.274Z,8.90
2023-04-11T04:49:28.367Z,7.32
2023-04-11T04:54:32.200Z,11.20
2023-04-11T04:59:35.784Z,13.60
2023-04-11T05:04:46.611Z,10.15
2023-04-11T05:09:51.431Z,5.78
2023-04-11T05:15:01.500Z,8.13
2023-04-11T05:20:09.270Z,8.13
2023-04-11T05:25:14.101Z,12.63
2023-04-11T05:30:19.445Z,8.68
2023-04-11T05:35:25.540Z,7.78
2023-04-11T05:40:32.100Z,9.40
2023-04-11T05:45:35.150Z,8.25
2023-04-11T05:50:39.024Z,7.95
2023-04-11T05:55:42.964Z,7.10
2023-04-11T06:00:47.098Z,6.53
2023-04-11T06:05:50.746Z,10.82
2023-04-11T06:10:54.611Z,7.93
2023-04-11T06:15:57.975Z,6.38
2023-04-11T06:21:02.036Z,7.70
2023-04-11T06:26:05.932Z,4.05
2023-04-11T06:31:10.142Z,4.35
2023-04-11T06:36:14.646Z,4.63
2023-04-11T06:41:18.391Z,5.82
2023-04-11T06:46:22.091Z,3.90
2023-04-11T06:51:26.806Z,3.85
2023-04-11T06:56:30.321Z,4.97
2023-04-11T07:01:39.699Z,4.68
2023-04-11T07:06:43.429Z,5.50
2023-04-11T07:11:47.287Z,4.28
2023-04-11T07:16:51.420Z,6.47
2023-04-11T07:21:55.001Z,6.32
2023-04-11T07:26:59.185Z,3.92
2023-04-11T07:32:02.858Z,4.82
2023-04-11T07:37:06.738Z,4.75
2023-04-11T07:42:11.321Z,3.70
2023-04-11T07:47:14.541Z,3.67
2023-04-11T07:52:18.078Z,4.60
2023-04-11T07:57:21.284Z,6.00
2023-04-11T08:02:25.439Z,4.20
2023-04-11T08:07:29.829Z,6.03
2023-04-11T08:12:33.317Z,5.30
2023-04-11T08:17:39.156Z,5.00
2023-04-11T08:22:44.949Z,6.38
2023-04-11T08:27:48.741Z,6.53
2023-04-11T08:32:52.817Z,5.50
2023-04-11T08:37:56.082Z,6.43
2023-04-11T08:43:01.031Z,4.10
2023-04-11T08:48:04.807Z,5.40
2023-04-11T08:53:09.725Z,4.40
2023-04-11T08:58:13.264Z,4.03
2023-04-11T09:03:17.762Z,3.35
2023-04-11T09:08:21.564Z,5.00
2023-04-11T09:13:27.650Z,5.20
2023-04-11T09:18:33.522Z,8.10
2023-04-11T09:23:38.206Z,8.48
2023-04-11T09:28:54.091Z,4.97
2023-04-11T09:34:00.121Z,7.32
2023-04-11T09:44:39.968Z,5.82
2023-04-11T09:49:44.011Z,7.25
2023-04-11T09:54:49.926Z,5.15
2023-04-11T09:59:56.297Z,5.75
2023-04-11T10:05:04.587Z,5.85
2023-04-11T10:10:09.076Z,3.70
2023-04-11T10:15:12.756Z,4.35
2023-04-11T10:20:50.824Z,5.25
2023-04-11T10:26:00.919Z,6.15
2023-04-11T10:31:17.687Z,5.63
2023-04-11T10:36:23.041Z,5.95
2023-04-11T10:41:29.615Z,5.13
2023-04-11T10:46:32.966Z,3.45
2023-04-11T10:51:37.045Z,6.65
2023-04-11T10:56:41.209Z,4.50
2023-04-11T11:01:55.499Z,6.20
2023-04-11T11:07:01.802Z,5.25
2023-04-11T11:12:25.403Z,5.40
2023-04-11T11:17:29.121Z,7.07
2023-04-11T11:22:32.714Z,6.57
2023-04-11T11:27:36.266Z,6.70
2023-04-11T11:32:39.563Z,6.55
2023-04-11T11:37:43.819Z,6.70
2023-04-11T11:42:47.207Z,4.78
2023-04-11T11:47:51.660Z,6.07
2023-04-11T11:52:57.650Z,4.78
2023-04-11T11:58:03.139Z,6.65
2023-04-11T12:03:11.025Z,4.70
2023-04-11T12:08:15.123Z,4.60
2023-04-11T12:13:27.399Z,5.25
2023-04-11T12:18:31.690Z,4.68
2023-04-11T12:23:34.771Z,6.13
2023-04-11T12:28:38.478Z,4.70
2023-04-11T12:33:42.411Z,5.05
2023-04-11T12:38:47.059Z,5.07
2023-04-11T12:43:51.035Z,6.68
2023-04-11T12:48:55.716Z,6.82
2023-04-11T12:53:59.484Z,4.47
2023-04-11T12:59:03.883Z,9.40
2023-04-11T13:04:07.203Z,7.55
2023-04-11T13:09:14.865Z,6.25
2023-04-11T13:14:18.775Z,4.90
2023-04-11T13:19:25.267Z,4.32
2023-04-11T13:24:29.347Z,5.68
2023-04-11T13:29:32.432Z,5.32
2023-04-11T13:34:38.604Z,4.90
2023-04-11T13:39:43.206Z,7.05
2023-04-11T13:44:47.294Z,5.32
2023-04-11T13:49:51.306Z,3.60
2023-04-11T13:54:55.439Z,4.72
2023-04-11T13:59:59.704Z,5.80
2023-04-11T14:05:03.231Z,4.70
2023-04-11T14:10:07.545Z,5.13
2023-04-11T14:15:12.161Z,6.70
2023-04-11T14:20:16.310Z,4.50
2023-04-11T14:25:21.092Z,4.95
2023-04-11T14:30:24.859Z,5.10
2023-04-11T14:35:28.323Z,4.57
2023-04-11T14:40:32.561Z,4.78
2023-04-11T14:45:36.745Z,4.65
2023-04-11T14:50:41.063Z,5.20
2023-04-11T14:55:44.742Z,4.93
2023-04-11T15:00:48.518Z,6.38
2023-04-11T15:05:52.077Z,7.38
2023-04-11T15:10:56.368Z,8.00
2023-04-11T15:16:01.219Z,5.32
2023-04-11T15:21:05.112Z,5.13
2023-04-11T15:26:09.415Z,5.75
2023-04-11T15:31:14.981Z,9.77
2023-04-11T15:36:19.205Z,4.97
2023-04-11T15:41:23.180Z,4.97
2023-04-11T15:46:27.512Z,6.03
2023-04-11T15:51:31.321Z,4.85
2023-04-11T15:56:35.289Z,5.45
2023-04-11T16:01:40.627Z,6.22
2023-04-11T16:06:44.838Z,5.67
2023-04-11T16:11:48.670Z,5.07
2023-04-11T16:16:53.189Z,5.90
2023-04-11T16:21:57.627Z,4.53
2023-04-11T16:27:01.684Z,4.95
2023-04-11T16:32:04.996Z,6.45
2023-04-11T16:37:08.560Z,6.50
2023-04-11T16:42:12.460Z,7.82
2023-04-11T16:47:15.658Z,6.18
2023-04-11T16:52:19.726Z,6.80
2023-04-11T16:57:24.064Z,5.05
2023-04-11T17:02:28.348Z,5.45
2023-04-11T17:07:33.582Z,4.80
2023-04-11T17:12:36.648Z,6.15
2023-04-11T17:17:41.508Z,8.10
2023-04-11T17:22:45.348Z,6.82
2023-04-11T17:27:49.126Z,8.63
2023-04-11T17:32:55.976Z,6.38
2023-04-11T17:38:00.914Z,8.10
2023-04-11T17:43:05.449Z,7.47
2023-04-11T17:48:09.384Z,9.15
2023-04-11T17:53:13.213Z,7.35
2023-04-11T17:58:17.207Z,9.32
2023-04-11T18:03:21.050Z,10.35
2023-04-11T18:08:46.712Z,9.43
2023-04-11T18:13:51.188Z,8.75
2023-04-11T18:18:54.470Z,10.00
2023-04-11T18:23:58.564Z,8.70
2023-04-11T18:29:01.867Z,9.32
2023-04-11T18:34:07.026Z,7.63
2023-04-11T18:39:11.063Z,7.57
2023-04-11T18:44:14.998Z,7.68
2023-04-11T18:49:19.175Z,10.15
2023-04-11T18:54:23.604Z,7.45
2023-04-11T18:59:29.532Z,7.43
2023-04-11T19:04:36.606Z,7.60
2023-04-11T19:09:40.830Z,9.05
2023-04-11T19:14:44.840Z,12.02
2023-04-11T19:19:48.620Z,8.98
2023-04-11T19:24:52.811Z,8.45
2023-04-11T19:29:57.329Z,12.30
2023-04-11T19:35:02.297Z,9.10
2023-04-11T19:40:16.905Z,8.50
2023-04-11T19:45:21.009Z,12.35
2023-04-11T19:50:24.444Z,12.48
2023-04-11T19:55:28.145Z,13.38
2023-04-11T20:00:36.407Z,12.38
2023-04-11T20:05:40.048Z,11.45
2023-04-11T20:10:44.452Z,10.63
2023-04-11T20:15:48.789Z,14.45
2023-04-11T20:20:53.018Z,13.25
2023-04-11T20:25:57.103Z,13.57
2023-04-11T20:31:00.363Z,8.65
2023-04-11T20:36:04.361Z,12.98
2023-04-11T20:41:09.014Z,12.48
2023-04-11T20:46:13.947Z,14.55
2023-04-11T20:51:18.536Z,11.55
2023-04-11T20:56:23.929Z,11.02
2023-04-11T21:01:32.799Z,11.07
2023-04-11T21:06:36.698Z,10.65
2023-04-11T21:11:41.398Z,9.05
2023-04-11T21:16:44.885Z,9.32
2023-04-11T21:21:48.826Z,12.50
2023-04-11T21:26:51.874Z,10.25
2023-04-11T21:31:56.067Z,10.18
2023-04-11T21:36:59.085Z,11.68
2023-04-11T21:42:03.157Z,9.93
2023-04-11T21:47:06.807Z,10.27
2023-04-11T21:52:10.624Z,9.43
2023-04-11T21:57:14.194Z,10.32
2023-04-11T22:02:18.641Z,12.50
2023-04-11T22:07:25.777Z,9.07
2023-04-11T22:12:29.346Z,11.43
2023-04-11T22:17:33.406Z,7.97
2023-04-11T22:22:36.668Z,12.38
2023-04-11T22:27:40.380Z,9.27
2023-04-11T22:32:43.562Z,10.35
2023-04-11T22:37:47.318Z,12.75
2023-04-11T22:42:52.247Z,12.07
2023-04-11T22:47:57.044Z,12.07
2023-04-11T22:53:03.556Z,11.95
2023-04-11T22:58:08.057Z,12.83
2023-04-11T23:03:12.652Z,8.85
2023-04-11T23:08:16.464Z,9.05
2023-04-11T23:13:20.141Z,9.80
2023-04-11T23:18:23.762Z,9.73
2023-04-11T23:23:28.479Z,9.93
2023-04-11T23:28:32.736Z,7.15
2023-04-11T23:33:36.168Z,9.65
2023-04-11T23:38:40.067Z,8.02
2023-04-11T23:43:43.628Z,7.70
2023-04-11T23:48:47.415Z,8.75
2023-04-11T23:53:51.015Z,7.55
2023-04-11T23:58:54.689Z,5.38
